createdAt,value
2022-10-22T00:00:03.663Z,291
2022-10-22T00:02:07.717Z,293.6
2022-10-22T00:12:30.997Z,295.6
2022-10-22T00:16:39.120Z,298.1
2022-10-22T00:18:43.175Z,295
2022-10-22T00:20:47.239Z,291.3
2022-10-22T00:29:06.450Z,301.3
2022-10-22T00:31:10.536Z,304.7
2022-10-22T00:33:14.576Z,302.1
2022-10-22T00:35:18.631Z,309.2
2022-10-22T00:37:22.716Z,307.6
2022-10-22T00:39:29.738Z,308.2
2022-10-22T00:41:33.827Z,308.7
2022-10-22T00:43:37.860Z,308.9
2022-10-22T00:44:41.391Z,313.4
2022-10-22T00:46:45.456Z,308
2022-10-22T00:48:49.490Z,312.4
2022-10-22T00:50:53.560Z,315.5
2022-10-22T00:53:00.621Z,313.7
2022-10-22T00:55:04.665Z,314.4
2022-10-22T00:57:10.314Z,311.9
2022-10-22T00:59:14.344Z,308.4
2022-10-22T01:01:18.425Z,310.9
2022-10-22T01:03:22.445Z,308
2022-10-22T01:05:26.504Z,311
2022-10-22T01:07:33.585Z,317.8
2022-10-22T01:09:37.633Z,319.3
2022-10-22T01:11:41.703Z,312.2
2022-10-22T01:13:45.751Z,305.9
2022-10-22T01:15:49.836Z,315
2022-10-22T01:17:53.868Z,306.9
2022-10-22T01:22:04.998Z,312.6
2022-10-22T01:24:09.064Z,308.7
2022-10-22T01:26:14.349Z,311.9
2022-10-22T01:28:17.177Z,312.7
2022-10-22T01:30:21.224Z,315.1
2022-10-22T01:32:25.277Z,309.4
2022-10-22T01:34:29.335Z,317.6
2022-10-22T01:36:36.409Z,320.3
2022-10-22T01:38:40.464Z,321.5
2022-10-22T01:40:44.523Z,317.7
2022-10-22T01:41:48.058Z,319
2022-10-22T01:43:52.134Z,319.9
2022-10-22T01:45:56.188Z,322.2
2022-10-22T01:50:07.325Z,323.5
2022-10-22T01:52:11.397Z,325
2022-10-22T01:54:15.466Z,326.6
2022-10-22T01:56:19.542Z,323.8
2022-10-22T01:58:23.599Z,323.2
2022-10-22T02:00:27.782Z,318.2
2022-10-22T02:02:31.760Z,320.8
2022-10-22T02:06:42.915Z,321.4
2022-10-22T02:08:47.025Z,318.3
2022-10-22T02:10:51.037Z,321.4
2022-10-22T02:12:55.109Z,322.2
2022-10-22T02:14:59.175Z,316.9
2022-10-22T02:19:10.324Z,318.6
2022-10-22T02:21:14.399Z,313.8
2022-10-22T02:31:34.688Z,314.4
2022-10-22T02:33:41.757Z,313.7
2022-10-22T02:35:45.826Z,314.5
2022-10-22T02:40:08.720Z,310.5
2022-10-22T02:42:12.803Z,318.5
2022-10-22T02:44:16.848Z,312.8
2022-10-22T02:46:23.916Z,305.6
2022-10-22T02:50:32.046Z,308.5
2022-10-22T02:56:44.211Z,306.7
2022-10-22T02:58:48.276Z,310.8
2022-10-22T03:05:03.463Z,312
2022-10-22T03:09:11.618Z,305.5
2022-10-22T03:11:15.663Z,297.5
2022-10-22T03:13:19.710Z,291.4
2022-10-22T03:17:30.871Z,285.8
2022-10-22T03:19:34.888Z,286.5
2022-10-22T03:21:38.931Z,290.3
2022-10-22T03:23:42.990Z,288.9
2022-10-22T03:27:51.126Z,292.5
2022-10-22T03:29:58.191Z,291.3
2022-10-22T03:32:02.240Z,289.7
2022-10-22T03:34:06.326Z,286.3
2022-10-22T03:35:09.843Z,283.5
2022-10-22T03:37:13.876Z,279.4
2022-10-22T03:39:17.939Z,277.9
2022-10-22T03:41:22.006Z,283.5
2022-10-22T03:43:29.059Z,287.3
2022-10-22T03:45:33.153Z,285.7
2022-10-22T03:47:37.546Z,285.7
2022-10-22T03:49:41.286Z,296
2022-10-22T03:51:45.301Z,301.9
2022-10-22T03:53:49.362Z,279.8
2022-10-22T03:55:53.407Z,294.7
2022-10-22T04:00:04.538Z,300.6
2022-10-22T04:04:18.594Z,295.4
2022-10-22T04:06:25.190Z,295.7
2022-10-22T04:10:24.786Z,299.7
2022-10-22T04:12:31.859Z,303.8
2022-10-22T04:16:39.982Z,296.7
2022-10-22T04:18:44.077Z,293.6
2022-10-22T04:20:48.078Z,298.2
2022-10-22T04:22:52.144Z,298.7
2022-10-22T04:24:56.201Z,303
2022-10-22T04:27:03.250Z,308.8
2022-10-22T04:29:10.520Z,303.3
2022-10-22T04:31:11.438Z,302.7
2022-10-22T04:34:19.021Z,307.1
2022-10-22T04:36:22.994Z,302.2
2022-10-22T04:38:27.065Z,306.9
2022-10-22T04:40:34.142Z,306.5
2022-10-22T04:42:38.198Z,304.8
2022-10-22T04:44:42.247Z,306.1
2022-10-22T04:46:46.312Z,297.8
2022-10-22T04:48:50.358Z,293.3
2022-10-22T04:50:54.423Z,293.2
2022-10-22T04:52:58.536Z,293
2022-10-22T04:59:13.710Z,297.8
2022-10-22T05:03:21.831Z,292
2022-10-22T05:11:41.078Z,292.7
2022-10-22T05:13:45.135Z,288.9
2022-10-22T05:15:49.200Z,289.1
2022-10-22T05:17:53.260Z,286.3
2022-10-22T05:19:57.306Z,284.3
2022-10-22T05:22:01.382Z,286.6
2022-10-22T05:24:08.450Z,287
2022-10-22T05:26:12.507Z,285.6
2022-10-22T05:28:16.557Z,286.5
2022-10-22T05:29:20.093Z,288.9
2022-10-22T05:31:24.130Z,286.8
2022-10-22T05:33:28.206Z,283.9
2022-10-22T05:35:32.236Z,279.5
2022-10-22T05:37:39.542Z,281.9
2022-10-22T05:39:43.361Z,288.9
2022-10-22T05:41:47.400Z,282
2022-10-22T05:43:51.469Z,289.9
2022-10-22T05:45:55.512Z,276.7
2022-10-22T05:50:03.620Z,284.6
2022-10-22T05:54:14.741Z,281.6
2022-10-22T05:56:18.780Z,280.5
2022-10-22T05:58:22.845Z,280.4
2022-10-22T06:00:26.890Z,285
2022-10-22T06:02:30.988Z,297.9
2022-10-22T06:04:35.015Z,291.6
2022-10-22T06:06:42.739Z,284.1
2022-10-22T06:08:46.194Z,287.3
2022-10-22T06:12:54.248Z,5.9
2022-10-22T06:14:58.337Z,5.3
2022-10-22T06:17:02.382Z,4
2022-10-22T06:19:06.429Z,7.4
2022-10-22T06:21:13.484Z,6
2022-10-22T06:23:17.546Z,5.5
2022-10-22T06:25:21.582Z,4.7
2022-10-22T06:27:45.939Z,3.3
2022-10-22T06:31:54.076Z,3.4
2022-10-22T06:34:01.155Z,3.2
2022-10-22T06:36:07.505Z,3.7
2022-10-22T06:40:13.324Z,4.4
2022-10-22T06:42:17.396Z,3.7
2022-10-22T06:44:21.472Z,2.9
2022-10-22T06:46:25.543Z,4.8
2022-10-22T06:48:32.641Z,3.1
2022-10-22T06:50:36.730Z,4.6
2022-10-22T06:52:40.788Z,3.2
2022-10-22T06:54:46.447Z,3
2022-10-22T06:56:50.470Z,5.3
2022-10-22T06:58:54.542Z,3
2022-10-22T07:00:58.635Z,3.3
2022-10-22T07:03:05.692Z,4
2022-10-22T07:05:09.881Z,3.5
2022-10-22T07:07:13.852Z,3.2
2022-10-22T07:11:22.021Z,3.8
2022-10-22T07:13:26.090Z,2.9
2022-10-22T07:19:41.340Z,2.9
2022-10-22T07:22:48.968Z,4.6
2022-10-22T07:24:53.037Z,3.3
2022-10-22T07:26:57.124Z,2.7
2022-10-22T07:29:01.218Z,4.4
2022-10-22T07:31:08.313Z,3.3
2022-10-22T07:33:12.398Z,2.9
2022-10-22T07:39:24.668Z,3
2022-10-22T07:41:28.753Z,2.9
2022-10-22T07:43:32.846Z,2.5
2022-10-22T07:45:39.951Z,4.8
2022-10-22T07:47:44.129Z,4.2
2022-10-22T07:49:48.133Z,3.2
2022-10-22T07:51:52.228Z,3.8
2022-10-22T07:53:56.354Z,4.3
2022-10-22T07:56:00.440Z,5.9
2022-10-22T07:58:04.513Z,5.8
2022-10-22T08:00:11.629Z,4.7
2022-10-22T08:04:19.845Z,4.5
2022-10-22T08:06:23.920Z,4.3
2022-10-22T08:08:30.591Z,3.9
2022-10-22T08:10:32.131Z,4.4
2022-10-22T08:12:36.218Z,4.9
2022-10-22T08:14:43.336Z,4.2
2022-10-22T08:16:47.439Z,3.5
2022-10-22T08:18:51.527Z,4
2022-10-22T08:19:55.099Z,3.2
2022-10-22T08:21:59.176Z,5.6
2022-10-22T08:24:03.339Z,4.4
2022-10-22T08:26:07.440Z,3.7
2022-10-22T08:28:17.425Z,5.4
2022-10-22T08:30:18.640Z,4.6
2022-10-22T08:32:22.786Z,4
2022-10-22T08:34:26.849Z,4.2
2022-10-22T08:36:30.946Z,4.4
2022-10-22T08:38:35.057Z,4.3
2022-10-22T08:40:39.215Z,3.4
2022-10-22T08:42:46.268Z,4.9
2022-10-22T08:44:50.359Z,5.4
2022-10-22T08:46:54.473Z,6
2022-10-22T08:48:58.684Z,5.1
2022-10-22T08:51:02.693Z,3.5
2022-10-22T08:53:06.809Z,5.7
2022-10-22T08:55:10.918Z,4.7
2022-10-22T08:57:18.139Z,4.1
2022-10-22T08:59:22.143Z,5.3
2022-10-22T09:01:26.232Z,5.7
2022-10-22T09:03:30.412Z,4.7
2022-10-22T09:05:34.479Z,5.3
2022-10-22T09:09:42.717Z,4.5
2022-10-22T09:17:01.615Z,6.1
2022-10-22T09:19:05.731Z,4.6
2022-10-22T09:21:09.853Z,7.2
2022-10-22T09:23:13.978Z,6
2022-10-22T09:25:21.098Z,5.8
2022-10-22T09:29:29.321Z,5.3
2022-10-22T09:31:33.443Z,5.4
2022-10-22T09:33:37.558Z,6
2022-10-22T09:35:41.681Z,3.8
2022-10-22T09:37:45.789Z,5.4
2022-10-22T09:39:52.933Z,4.6
2022-10-22T09:41:57.050Z,4.7
2022-10-22T09:44:01.182Z,4.3
2022-10-22T09:46:05.286Z,3.5
2022-10-22T09:58:33.026Z,3
2022-10-22T10:02:41.287Z,3.9
2022-10-22T10:08:56.697Z,2.2
2022-10-22T10:11:00.763Z,2.6
2022-10-22T10:13:04.909Z,2.3
2022-10-22T10:15:29.512Z,2
2022-10-22T10:17:33.605Z,2.5
2022-10-22T10:19:37.731Z,2.3
2022-10-22T10:21:44.883Z,3
2022-10-22T10:25:53.120Z,1.8
2022-10-22T10:36:16.802Z,1.1
2022-10-22T10:40:25.019Z,1.7
2022-10-22T10:44:33.269Z,3.4
2022-10-22T10:46:37.420Z,1.7
2022-10-22T10:48:41.522Z,2
2022-10-22T10:52:52.797Z,1.5
2022-10-22T10:57:01.052Z,1.4
2022-10-22T11:03:13.459Z,1.5
2022-10-22T11:05:20.596Z,1.9
2022-10-22T11:07:45.014Z,1.5
2022-10-22T11:09:28.842Z,1.9
2022-10-22T11:10:32.431Z,1.9
2022-10-22T11:12:36.563Z,1.2
2022-10-22T11:16:44.803Z,1.8
2022-10-22T11:18:51.959Z,1.2
2022-10-22T11:20:56.081Z,1.2
2022-10-22T11:23:18.750Z,1.4
2022-10-22T11:25:04.362Z,1.7
2022-10-22T11:27:08.480Z,1
2022-10-22T11:29:12.612Z,1.1
2022-10-22T11:31:16.746Z,0.7
2022-10-22T11:33:23.903Z,2.1
2022-10-22T11:35:28.047Z,1
2022-10-22T11:37:32.188Z,1.3
2022-10-22T11:39:36.310Z,1.3
2022-10-22T11:41:40.460Z,0.8
2022-10-22T11:43:44.585Z,2.6
2022-10-22T11:45:48.738Z,0.8
2022-10-22T11:47:55.885Z,0.8
2022-10-22T11:49:59.999Z,1.3
2022-10-22T11:52:05.077Z,0.6
2022-10-22T11:54:08.283Z,0.8
2022-10-22T11:56:12.442Z,0.7
2022-10-22T11:58:16.566Z,0.7
2022-10-22T12:00:20.685Z,2.2
2022-10-22T12:02:27.843Z,1.5
2022-10-22T12:04:32.022Z,0.7
2022-10-22T12:06:36.125Z,0.7
2022-10-22T12:07:39.700Z,1
2022-10-22T12:09:43.873Z,0.6
2022-10-22T12:11:47.988Z,0.7
2022-10-22T12:13:52.095Z,0.6
2022-10-22T12:15:59.276Z,0.9
2022-10-22T12:18:03.407Z,1.1
2022-10-22T12:20:07.613Z,1.1
2022-10-22T12:22:11.656Z,1.2
2022-10-22T12:24:15.805Z,1.2
2022-10-22T12:26:19.988Z,0.7
2022-10-22T12:28:24.090Z,0.8
2022-10-22T12:30:31.240Z,1
2022-10-22T12:32:35.379Z,0.7
2022-10-22T12:34:39.564Z,0.8
2022-10-22T12:36:43.621Z,1
2022-10-22T12:38:47.773Z,0.2
2022-10-22T12:40:51.903Z,1.1
2022-10-22T12:42:56.184Z,0.7
2022-10-22T12:45:03.180Z,1.3
2022-10-22T12:47:07.318Z,1.1
2022-10-22T12:49:11.441Z,0.5
2022-10-22T12:53:21.308Z,0.8
2022-10-22T12:59:36.850Z,0.8
2022-10-22T13:01:40.825Z,1.9
2022-10-22T13:03:44.954Z,1
2022-10-22T13:04:48.526Z,0.5
2022-10-22T13:11:00.943Z,0.7
2022-10-22T13:13:08.078Z,1.1
2022-10-22T13:15:12.441Z,0.7
2022-10-22T13:17:16.356Z,0.7
2022-10-22T13:19:20.498Z,0.7
2022-10-22T13:21:24.640Z,1.2
2022-10-22T13:23:28.778Z,0.4
2022-10-22T13:25:32.927Z,0.9
2022-10-22T13:27:40.433Z,1
2022-10-22T13:29:44.194Z,0.4
2022-10-22T13:31:48.338Z,0.7
2022-10-22T13:33:52.489Z,0.8
2022-10-22T13:35:56.597Z,0.8
2022-10-22T13:38:00.751Z,0.9
2022-10-22T13:40:08.905Z,1
2022-10-22T13:42:12.048Z,1.1
2022-10-22T13:44:16.168Z,0.8
2022-10-22T13:48:24.454Z,0.6
2022-10-22T13:50:28.573Z,0.6
2022-10-22T13:52:32.716Z,0.4
2022-10-22T13:54:36.856Z,1.3
2022-10-22T13:56:43.994Z,1
2022-10-22T14:03:16.789Z,0.9
2022-10-22T14:05:20.950Z,0.7
2022-10-22T14:07:25.082Z,0.7
2022-10-22T14:09:32.353Z,0.9
2022-10-22T14:11:36.357Z,1.4
2022-10-22T14:13:40.511Z,1.1
2022-10-22T14:15:44.639Z,0.4
2022-10-22T14:17:48.771Z,0.8
2022-10-22T14:19:52.936Z,0.8
2022-10-22T14:21:57.047Z,0.7
2022-10-22T14:24:06.120Z,0.8
2022-10-22T14:28:12.450Z,1
2022-10-22T14:30:16.632Z,0.8
2022-10-22T14:32:20.729Z,1.7
2022-10-22T14:34:24.860Z,1
2022-10-22T14:36:28.994Z,1.3
2022-10-22T14:38:36.127Z,1.3
2022-10-22T14:40:40.311Z,1.3
2022-10-22T14:42:44.579Z,1
2022-10-22T14:44:48.545Z,1.1
2022-10-22T14:46:52.688Z,2.1
2022-10-22T14:48:56.822Z,1.2
2022-10-22T14:51:00.951Z,2.3
2022-10-22T14:53:08.091Z,1.1
2022-10-22T14:55:12.233Z,1.8
2022-10-22T14:57:16.365Z,1.1
2022-10-22T15:00:24.154Z,1.4
2022-10-22T15:02:28.205Z,1.4
2022-10-22T15:06:39.510Z,1
2022-10-22T15:08:43.682Z,0.9
2022-10-22T15:10:47.804Z,1.1
2022-10-22T15:12:51.927Z,0.8
2022-10-22T15:14:56.055Z,1.3
2022-10-22T15:17:00.193Z,1.4
2022-10-22T15:19:04.329Z,1.8
2022-10-22T15:21:11.545Z,1.1
2022-10-22T15:23:15.636Z,2.2
2022-10-22T15:25:19.758Z,2.1
2022-10-22T15:27:23.892Z,1.6
2022-10-22T15:29:28.036Z,1.6
2022-10-22T15:31:32.170Z,1.8
2022-10-22T15:33:36.308Z,1
2022-10-22T15:35:43.442Z,2.6
2022-10-22T15:39:51.724Z,1.5
2022-10-22T15:41:55.855Z,2.2
2022-10-22T15:44:00.005Z,1.4
2022-10-22T15:46:04.133Z,1.8
2022-10-22T15:48:09.698Z,1.4
2022-10-22T15:50:15.426Z,2.2
2022-10-22T15:52:19.542Z,1.6
2022-10-22T15:54:23.682Z,1.7
2022-10-22T15:55:27.235Z,2.4
2022-10-22T15:57:31.388Z,1.4
2022-10-22T15:59:35.496Z,2
2022-10-22T16:01:39.637Z,2
2022-10-22T16:03:46.787Z,1.5
2022-10-22T16:05:50.908Z,2
2022-10-22T16:07:55.059Z,1.7
2022-10-22T16:09:59.216Z,2.5
2022-10-22T16:12:03.297Z,1.7
2022-10-22T16:14:07.414Z,1.4
2022-10-22T16:16:11.537Z,2.1
2022-10-22T16:18:18.682Z,2.3
2022-10-22T16:20:22.871Z,2.4
2022-10-22T16:22:26.942Z,3.3
2022-10-22T16:24:31.056Z,2.3
2022-10-22T16:26:35.180Z,3.1
2022-10-22T16:28:39.297Z,4.8
2022-10-22T16:30:45.354Z,5.1
2022-10-22T16:32:50.541Z,7
2022-10-22T16:34:54.684Z,3.4
2022-10-22T16:36:58.805Z,2.7
2022-10-22T16:39:02.933Z,3.3
2022-10-22T16:41:07.036Z,2.9
2022-10-22T16:47:22.387Z,3.3
2022-10-22T16:49:26.672Z,3.9
2022-10-22T16:51:30.603Z,3
2022-10-22T16:52:34.165Z,2.8
2022-10-22T16:54:38.410Z,3.4
2022-10-22T16:56:42.373Z,3.3
2022-10-22T16:58:46.484Z,4.6
2022-10-22T17:00:53.705Z,6
2022-10-22T17:02:57.718Z,5.1
2022-10-22T17:05:01.843Z,5.3
2022-10-22T17:07:05.925Z,4.3
2022-10-22T17:09:10.152Z,3.1
2022-10-22T17:11:14.130Z,6.4
2022-10-22T17:13:18.231Z,4.4
2022-10-22T17:15:25.346Z,4.9
2022-10-22T17:17:29.441Z,5
2022-10-22T17:19:33.555Z,5.2
2022-10-22T17:21:37.644Z,6.7
2022-10-22T17:23:41.764Z,9.1
2022-10-22T17:25:45.847Z,11.8
2022-10-22T17:27:49.933Z,13.6
2022-10-22T17:29:57.041Z,9.3
2022-10-22T17:32:01.140Z,13.5
2022-10-22T17:34:05.242Z,12.3
2022-10-22T17:36:09.337Z,10.7
2022-10-22T17:38:13.428Z,10.7
2022-10-22T17:40:17.539Z,10.4
2022-10-22T17:42:21.619Z,11.5
2022-10-22T17:44:28.723Z,13
2022-10-22T17:46:32.815Z,12.4
2022-10-22T17:48:36.895Z,14.9
2022-10-22T17:51:01.095Z,18.9
2022-10-22T17:53:05.194Z,17.2
2022-10-22T17:55:09.258Z,21
2022-10-22T17:57:16.372Z,22.7
2022-10-22T17:59:20.440Z,28.1
2022-10-22T18:01:24.697Z,27.1
2022-10-22T18:03:28.608Z,25.8
2022-10-22T18:09:40.903Z,31.5
2022-10-22T18:15:56.091Z,46
2022-10-22T18:22:08.317Z,59.8
2022-10-22T18:26:21.582Z,79.8
2022-10-22T18:28:23.550Z,90.9
2022-10-22T18:30:27.700Z,94.8
2022-10-22T18:32:31.688Z,98.8
2022-10-22T18:34:35.781Z,104.3
2022-10-22T18:36:39.831Z,114.2
2022-10-22T18:40:50.997Z,124.5
2022-10-22T18:42:55.044Z,125.4
2022-10-22T18:44:59.110Z,128.8
2022-10-22T18:46:02.661Z,131.1
2022-10-22T18:50:10.788Z,136.4
2022-10-22T18:52:16.439Z,141.7
2022-10-22T18:54:24.469Z,152.3
2022-10-22T18:56:27.545Z,151
2022-10-22T18:58:31.574Z,153.3
2022-10-22T19:00:35.658Z,159.2
2022-10-22T19:02:39.964Z,149.4
2022-10-22T19:04:43.783Z,156.5
2022-10-22T19:06:47.819Z,164.4
2022-10-22T19:08:54.961Z,186.7
2022-10-22T19:10:58.973Z,181.7
2022-10-22T19:13:03.035Z,185.5
2022-10-22T19:15:07.084Z,187.5
2022-10-22T19:17:11.171Z,185.1
2022-10-22T19:19:15.236Z,191.9
2022-10-22T19:21:19.264Z,192.1
2022-10-22T19:23:26.359Z,203.7
2022-10-22T19:27:34.474Z,210.8
2022-10-22T19:31:42.587Z,212.2
2022-10-22T19:33:46.652Z,206.7
2022-10-22T19:35:50.723Z,211.7
2022-10-22T19:37:57.776Z,225.3
2022-10-22T19:40:01.902Z,219.6
2022-10-22T19:42:05.902Z,216.1
2022-10-22T19:43:09.429Z,222.6
2022-10-22T19:45:13.508Z,221.1
2022-10-22T19:47:17.557Z,222.4
2022-10-22T19:49:22.999Z,221
2022-10-22T19:51:28.675Z,221.7
2022-10-22T19:53:32.738Z,222.4
2022-10-22T19:55:36.800Z,213.1
2022-10-22T19:57:41.246Z,218.4
2022-10-22T19:59:44.922Z,220.6
2022-10-22T20:01:48.990Z,216.6
2022-10-22T20:03:53.040Z,216.4
2022-10-22T20:06:00.109Z,224.8
2022-10-22T20:08:04.158Z,221.9
2022-10-22T20:12:12.262Z,220.3
2022-10-22T20:14:16.330Z,224.1
2022-10-22T20:16:20.384Z,223.2
2022-10-22T20:18:24.441Z,228.1
2022-10-22T20:20:31.516Z,236.1
2022-10-22T20:24:39.598Z,239.2
2022-10-22T20:26:43.659Z,236.9
2022-10-22T20:28:47.719Z,238.5
2022-10-22T20:30:51.780Z,239.5
2022-10-22T20:32:55.819Z,237.6
2022-10-22T20:35:02.992Z,237
2022-10-22T20:39:11.007Z,235.4
2022-10-22T20:40:14.521Z,239.6
2022-10-22T20:44:22.614Z,242.6
2022-10-22T20:48:33.736Z,244.7
2022-10-22T20:56:49.931Z,241.5
2022-10-22T21:03:05.081Z,250.1
2022-10-22T21:05:09.117Z,244.6
2022-10-22T21:07:13.162Z,240.7
2022-10-22T21:13:25.302Z,227.1
2022-10-22T21:15:29.339Z,230.7
2022-10-22T21:17:36.402Z,239.4
2022-10-22T21:21:44.476Z,239.6
2022-10-22T21:23:48.525Z,242.7
2022-10-22T21:25:52.547Z,240.2
2022-10-22T21:27:56.608Z,240.6
2022-10-22T21:30:00.660Z,239.6
2022-10-22T21:32:07.695Z,246.2
2022-10-22T21:34:11.747Z,249.4
2022-10-22T21:36:20.171Z,247.6
2022-10-22T21:40:38.235Z,247.6
2022-10-22T21:42:42.274Z,247.2
2022-10-22T21:51:01.484Z,241
2022-10-22T21:55:09.543Z,238.2
2022-10-22T21:59:20.644Z,243
2022-10-22T22:01:24.747Z,243.3
2022-10-22T22:03:28.728Z,243.1
2022-10-22T22:07:36.833Z,242.6
2022-10-22T22:09:40.873Z,247.2
2022-10-22T22:11:44.881Z,240.7
2022-10-22T22:15:55.989Z,247.7
2022-10-22T22:18:00.085Z,248.4
2022-10-22T22:20:04.108Z,248.7
2022-10-22T22:22:08.145Z,244.1
2022-10-22T22:24:12.173Z,244.4
2022-10-22T22:28:23.272Z,249.2
2022-10-22T22:30:27.329Z,247.2
2022-10-22T22:32:31.383Z,242.6
2022-10-22T22:37:43.315Z,255.3
2022-10-22T22:39:47.044Z,249.5
2022-10-22T22:41:54.122Z,247.3
2022-10-22T22:43:58.136Z,248
2022-10-22T22:46:02.177Z,250
2022-10-22T22:48:06.235Z,248.1
2022-10-22T22:50:10.278Z,244.9
2022-10-22T22:54:18.380Z,237.9
2022-10-22T22:56:25.436Z,248.3
2022-10-22T22:58:29.474Z,244.1
2022-10-22T23:04:41.627Z,240.8
2022-10-22T23:06:45.684Z,238.4
2022-10-22T23:08:49.754Z,240.3
2022-10-22T23:10:56.800Z,240.5
2022-10-22T23:13:00.845Z,241.2
2022-10-22T23:15:04.898Z,237.6
2022-10-22T23:17:08.947Z,236.3
2022-10-22T23:19:12.992Z,236
2022-10-22T23:23:21.087Z,228.5
2022-10-22T23:30:39.771Z,223.3
2022-10-22T23:32:43.815Z,226
2022-10-22T23:34:47.881Z,223.2
2022-10-22T23:36:51.934Z,223.3
2022-10-22T23:38:59.013Z,227.9
2022-10-22T23:41:03.041Z,222.1
2022-10-22T23:43:07.080Z,220.7
2022-10-22T23:45:11.143Z,220.4
2022-10-22T23:47:15.189Z,220.8
2022-10-22T23:51:23.294Z,220.5
2022-10-22T23:55:34.426Z,216.7
2022-10-22T23:59:42.514Z,216.6
